D/T METAR WX W/DIR W/SPE G/SPE TEMP DEWP
23/05/19 12:50 EGVN 231150Z 23003KT CAVOK 20/06 Q1016 NOSIG SW (230°) 3.5mph 20°C 6°C
23/05/19 11:50 EGVN 231050Z 20003KT CAVOK 19/06 Q1016 NOSIG SSW (200°) 3.5mph 19°C 6°C
23/05/19 10:50 EGVN 230950Z 23004KT 9999 FEW048 BKN220 18/06 Q1016 BLU NOSIG SW (230°) 4.6mph 18°C 6°C
23/05/19 09:50 EGVN 230850Z 21003KT CAVOK 16/08 Q1017 BLU NOSIG SSW (210°) 3.5mph 16°C 8°C
23/05/19 08:50 EGVN 230750Z 26003KT CAVOK 13/08 Q1017 NOSIG W (260°) 3.5mph 13°C 8°C
23/05/19 07:50 EGVN 230650Z 24003KT CAVOK 11/07 Q1017 NOSIG WSW (240°) 3.5mph 11°C 7°C
23/05/19 06:50 EGVN 230550Z 23002KT CAVOK 10/07 Q1017 NOSIG SW (230°) 2.3mph 10°C 7°C
23/05/19 05:50 EGVN 230450Z 30001KT CAVOK 08/05 Q1017 BLU NOSIG WNW (300°) 1.2mph 8°C 5°C
23/05/19 04:50 EGVN 230350Z 29002KT CAVOK 08/06 Q1017 NOSIG WNW (290°) 2.3mph 8°C 6°C
23/05/19 03:50 EGVN 230250Z 29002KT CAVOK 09/06 Q1017 BLU NOSIG WNW (290°) 2.3mph 9°C 6°C
23/05/19 02:50 EGVN 230150Z 25003KT CAVOK 10/06 Q1017 NOSIG WSW (250°) 3.5mph 10°C 6°C
23/05/19 01:50 EGVN 230050Z 28003KT CAVOK 10/06 Q1018 NOSIG W (280°) 3.5mph 10°C 6°C
23/05/19 00:50 EGVN 222350Z 29003KT CAVOK 12/06 Q1018 NOSIG WNW (290°) 3.5mph 12°C 6°C
22/05/19 23:50 EGVN 222250Z 25003KT CAVOK 13/06 Q1018 NOSIG WSW (250°) 3.5mph 13°C 6°C
22/05/19 22:50 EGVN 222150Z 24002KT CAVOK 15/07 Q1018 BLU NOSIG WSW (240°) 2.3mph 15°C 7°C
22/05/19 21:50 EGVN 222050Z 22002KT CAVOK 16/06 Q1018 NOSIG SW (220°) 2.3mph 16°C 6°C
22/05/19 20:50 EGVN 221950Z 28001KT CAVOK 17/06 Q1017 NOSIG W (280°) 1.2mph 17°C 6°C
22/05/19 19:50 EGVN 221850Z 26002KT CAVOK 18/05 Q1017 NOSIG W (260°) 2.3mph 18°C 5°C
22/05/19 18:50 EGVN 221750Z 28005KT CAVOK 20/04 Q1017 BLU NOSIG W (280°) 5.8mph 20°C 4°C
22/05/19 17:50 EGVN 221650Z 27006KT CAVOK 19/03 Q1018 NOSIG W (270°) 6.9mph 19°C 3°C
22/05/19 16:50 EGVN 221550Z 25006KT CAVOK 20/05 Q1018 NOSIG WSW (250°) 6.9mph 20°C 5°C
22/05/19 15:50 EGVN 221450Z 25007KT CAVOK 20/02 Q1018 BLU NOSIG WSW (250°) 8.1mph 20°C 2°C
22/05/19 14:50 EGVN 221350Z 26005KT CAVOK 20/03 Q1019 BLU NOSIG W (260°) 5.8mph 20°C 3°C
22/05/19 13:50 EGVN 221250Z 21005KT CAVOK 19/02 Q1019 NOSIG SSW (210°) 5.8mph 19°C 2°C
22/05/19 12:50 EGVN 221150Z 22007KT CAVOK 18/04 Q1019 NOSIG SW (220°) 8.1mph 18°C 4°C
22/05/19 11:50 EGVN 221050Z 25005KT CAVOK 18/04 Q1020 NOSIG WSW (250°) 5.8mph 18°C 4°C
22/05/19 10:50 EGVN 220950Z 20002KT CAVOK 17/05 Q1020 BLU NOSIG SSW (200°) 2.3mph 17°C 5°C
22/05/19 09:50 EGVN 220850Z 18004KT CAVOK 15/04 Q1020 BLU NOSIG S (180°) 4.6mph 15°C 4°C
22/05/19 08:50 EGVN 220750Z 17003KT CAVOK 14/04 Q1020 NOSIG S (170°) 3.5mph 14°C 4°C
22/05/19 07:50 EGVN 220650Z 24002KT CAVOK 13/04 Q1020 BLU NOSIG WSW (240°) 2.3mph 13°C 4°C
22/05/19 06:50 EGVN 220550Z 32001KT CAVOK 10/04 Q1020 NOSIG NW (320°) 1.2mph 10°C 4°C
22/05/19 05:50 EGVN 220450Z 31001KT CAVOK 08/04 Q1020 NOSIG NW (310°) 1.2mph 8°C 4°C
22/05/19 04:50 EGVN 220350Z 28003KT CAVOK 08/03 Q1020 BLU NOSIG W (280°) 3.5mph 8°C 3°C
22/05/19 03:50 EGVN 220250Z 33001KT CAVOK 10/03 Q1020 NOSIG NNW (330°) 1.2mph 10°C 3°C
22/05/19 02:50 EGVN 220150Z 18001KT 9999 FEW046 BKN180 11/03 Q1020 NOSIG S (180°) 1.2mph 11°C 3°C
22/05/19 01:50 EGVN 220050Z 31003KT CAVOK 12/04 Q1020 NOSIG NW (310°) 3.5mph 12°C 4°C
22/05/19 00:50 EGVN 212350Z 24001KT CAVOK 12/05 Q1020 BLU NOSIG WSW (240°) 1.2mph 12°C 5°C
21/05/19 23:50 EGVN 212250Z 25001KT CAVOK 13/05 Q1020 NOSIG WSW (250°) 1.2mph 13°C 5°C
21/05/19 22:50 EGVN 212150Z 03004KT CAVOK 12/05 Q1020 NOSIG NNE (30°) 4.6mph 12°C 5°C
21/05/19 21:50 EGVN 212050Z 02010KT CAVOK 14/06 Q1020 NOSIG NNE (20°) 11.5mph 14°C 6°C
21/05/19 20:50 EGVN 211950Z 01004KT CAVOK 15/06 Q1019 BLU NOSIG N (10°) 4.6mph 15°C 6°C
21/05/19 19:50 EGVN 211850Z 34006KT CAVOK 17/05 Q1019 BLU NOSIG NNW (340°) 6.9mph 17°C 5°C
21/05/19 18:50 EGVN 211750Z 31005KT CAVOK 18/05 Q1019 NOSIG NW (310°) 5.8mph 18°C 5°C
21/05/19 17:50 EGVN 211650Z 31006KT CAVOK 19/05 Q1019 NOSIG NW (310°) 6.9mph 19°C 5°C
21/05/19 16:50 EGVN 211550Z 35010KT CAVOK 19/05 Q1019 BLU NOSIG N (350°) 11.5mph 19°C 5°C
21/05/19 15:50 EGVN 211450Z 33010KT CAVOK 19/06 Q1019 BLU NOSIG NNW (330°) 11.5mph 19°C 6°C
21/05/19 14:50 EGVN 211350Z 31008KT 9999 FEW048 19/06 Q1019 NOSIG NW (310°) 9.2mph 19°C 6°C
21/05/19 13:50 EGVN 211250Z 33011KT 9999 FEW042 18/06 Q1019 NOSIG NNW (330°) 12.7mph 18°C 6°C